Time;durP1;ratioP1;P1;durP2;ratioP2;P2;SDS_P1;SDS_P2;PMS_P1;PMS_P2;Temp;Humidity;BMP_temperature;BMP_pressure;BME280_temperature;BME280_humidity;BME280_pressure;Samples;Min_cycle;Max_cycle;Signal;HPM_P1;HPM_P2
2021/12/08 00:00:50;;;;;;;3.83;3.00;;;;;;;0.06;75.98;94437.94;5010022;28;20484;-79
2021/12/08 00:03:15;;;;;;;4.95;3.25;;;;;;;0.07;75.24;94439.59;5008939;28;20044;-81
2021/12/08 00:05:41;;;;;;;4.55;3.30;;;;;;;0.04;75.16;94442.53;5026150;28;20021;-81
2021/12/08 00:08:07;;;;;;;4.80;3.30;;;;;;;0.01;75.38;94442.78;5009323;28;20029;-81
2021/12/08 00:13:07;;;;;;;5.57;3.78;;;;;;;-0.25;76.50;94453.84;5039507;28;20037;-83
2021/12/08 00:15:39;;;;;;;4.93;3.47;;;;;;;-0.16;76.05;94457.47;5044731;28;20018;-80
2021/12/08 00:18:06;;;;;;;5.20;3.50;;;;;;;-0.30;76.86;94458.66;5041789;28;20081;-81
2021/12/08 00:20:33;;;;;;;4.43;3.10;;;;;;;-0.21;76.56;94463.13;5015413;28;20504;-80
2021/12/08 00:22:59;;;;;;;4.53;3.17;;;;;;;-0.15;76.23;94452.06;5026991;28;20480;-81
2021/12/08 00:25:25;;;;;;;6.03;3.75;;;;;;;-0.23;76.41;94475.63;5025595;28;20365;-78
2021/12/08 00:27:50;;;;;;;4.78;3.38;;;;;;;-0.15;76.22;94465.25;5026360;28;20486;-79
2021/12/08 00:30:16;;;;;;;6.10;3.72;;;;;;;-0.08;76.22;94467.34;5025672;28;20411;-82
2021/12/08 00:32:42;;;;;;;5.78;3.42;;;;;;;-0.14;76.25;94480.09;5024624;28;20036;-80
2021/12/08 00:35:08;;;;;;;5.63;3.22;;;;;;;-0.10;76.15;94472.75;5027055;28;20030;-81
2021/12/08 00:37:33;;;;;;;7.97;3.88;;;;;;;-0.17;76.28;94475.09;5007970;28;20036;-78
2021/12/08 00:39:59;;;;;;;6.00;3.90;;;;;;;-0.24;75.92;94470.50;5027097;28;20022;-78
2021/12/08 00:42:25;;;;;;;5.82;3.50;;;;;;;-0.18;76.61;94480.50;5026169;28;20025;-80
2021/12/08 00:44:50;;;;;;;5.20;3.70;;;;;;;-0.13;76.18;94487.00;5026389;28;20025;-78
2021/12/08 00:47:16;;;;;;;6.00;3.90;;;;;;;-0.20;76.16;94485.91;5025274;28;20033;-79
2021/12/08 00:49:41;;;;;;;5.35;3.72;;;;;;;-0.27;75.76;94490.00;5026049;28;20474;-80
2021/12/08 00:52:07;;;;;;;6.22;3.70;;;;;;;-0.34;76.39;94495.00;5026717;28;20046;-80
2021/12/08 00:54:32;;;;;;;6.10;4.03;;;;;;;-0.22;75.58;94486.97;5025657;28;20033;-81
2021/12/08 00:56:58;;;;;;;5.95;4.13;;;;;;;-0.24;75.46;94487.13;5009401;28;20095;-81
2021/12/08 00:59:24;;;;;;;6.13;3.92;;;;;;;-0.32;75.52;94482.50;5024265;28;20033;-80
2021/12/08 01:01:49;;;;;;;6.60;4.47;;;;;;;-0.26;75.93;94489.06;5025212;28;20516;-80
2021/12/08 01:04:15;;;;;;;5.65;3.97;;;;;;;-0.17;74.87;94485.63;5024760;28;20083;-80
2021/12/08 01:06:41;;;;;;;5.65;3.80;;;;;;;-0.19;74.66;94491.97;5025152;28;20074;-80
2021/12/08 01:09:07;;;;;;;6.18;3.95;;;;;;;-0.23;75.24;94495.88;5027184;28;20090;-81
2021/12/08 01:11:32;;;;;;;5.72;3.88;;;;;;;-0.28;75.30;94498.91;5025905;28;20029;-80
2021/12/08 01:13:58;;;;;;;5.70;3.95;;;;;;;-0.21;75.63;94499.22;5009661;28;20034;-79
2021/12/08 01:16:23;;;;;;;6.50;4.35;;;;;;;-0.35;76.27;94500.38;5024457;28;20032;-80
2021/12/08 01:18:49;;;;;;;6.45;4.28;;;;;;;-0.23;75.92;94494.06;5009477;28;20026;-81
2021/12/08 01:21:14;;;;;;;7.05;4.90;;;;;;;-0.26;75.34;94491.72;5007999;28;20032;-79
2021/12/08 01:23:40;;;;;;;6.60;4.53;;;;;;;-0.19;75.73;94491.97;5025081;28;20458;-80
2021/12/08 01:26:06;;;;;;;8.45;5.20;;;;;;;-0.17;75.84;94485.63;5025269;28;20377;-82
2021/12/08 01:28:32;;;;;;;9.25;5.70;;;;;;;-0.11;74.70;94486.88;5007912;28;20431;-81
2021/12/08 01:30:59;;;;;;;9.30;5.40;;;;;;;-0.05;75.38;94494.25;5008953;28;20479;-79
2021/12/08 01:33:25;;;;;;;8.88;5.32;;;;;;;-0.07;75.07;94485.66;5023412;28;20531;-79
2021/12/08 01:35:51;;;;;;;9.45;6.60;;;;;;;-0.17;75.09;94490.91;5025292;28;20029;-80
2021/12/08 01:38:17;;;;;;;11.10;6.85;;;;;;;-0.15;75.67;94488.97;5024161;28;20033;-79
2021/12/08 01:40:42;;;;;;;11.45;6.63;;;;;;;-0.16;75.49;94486.47;5026448;28;20031;-81
2021/12/08 01:43:22;;;;;;;8.70;5.82;;;;;;;-0.16;74.98;94492.56;5008203;28;20550;-81
2021/12/08 01:45:59;;;;;;;9.45;6.03;;;;;;;-0.36;75.63;94481.13;5026166;28;20908;-80
2021/12/08 01:48:25;;;;;;;12.85;6.43;;;;;;;-0.30;75.81;94491.13;5028721;28;20033;-80
2021/12/08 01:50:53;;;;;;;10.13;6.40;;;;;;;-0.31;75.72;94496.53;5027162;28;20526;-81
2021/12/08 01:53:19;;;;;;;11.68;6.68;;;;;;;-0.33;75.14;94485.28;5012254;28;20595;-80
2021/12/08 01:55:44;;;;;;;13.30;6.60;;;;;;;-0.38;75.45;94510.25;5028021;28;20025;-80
2021/12/08 01:58:10;;;;;;;10.05;6.47;;;;;;;-0.34;76.11;94491.53;5029820;28;20017;-81
2021/12/08 02:00:41;;;;;;;11.13;6.72;;;;;;;-0.39;75.95;94503.28;5027898;28;20397;-80
2021/12/08 02:03:06;;;;;;;11.68;7.18;;;;;;;-0.41;76.13;94493.84;5028836;28;20087;-82
2021/12/08 02:05:32;;;;;;;10.70;7.07;;;;;;;-0.43;75.72;94501.06;5011919;28;20034;-80
2021/12/08 02:07:57;;;;;;;12.13;7.20;;;;;;;-0.43;76.47;94509.81;5027211;28;20087;-81
2021/12/08 02:10:23;;;;;;;11.23;7.28;;;;;;;-0.48;76.07;94503.28;5028653;28;20040;-83
2021/12/08 02:12:48;;;;;;;13.68;7.95;;;;;;;-0.56;76.42;94503.91;5027127;28;20029;-81
2021/12/08 02:15:15;;;;;;;14.55;7.93;;;;;;;-0.54;76.48;94510.72;5029655;28;20026;-79
2021/12/08 02:17:41;;;;;;;14.18;7.80;;;;;;;-0.52;76.31;94507.97;5011163;28;20424;-83
2021/12/08 02:20:09;;;;;;;12.23;7.90;;;;;;;-0.50;76.73;94513.94;5011196;28;20029;-82
2021/12/08 02:22:34;;;;;;;14.23;8.15;;;;;;;-0.48;76.44;94513.81;5027619;28;20043;-80
2021/12/08 02:25:00;;;;;;;15.52;9.07;;;;;;;-0.49;75.90;94528.78;5027702;28;20025;-80
2021/12/08 02:27:25;;;;;;;14.00;7.10;;;;;;;-0.53;76.10;94515.03;5031336;28;20029;-80
2021/12/08 02:29:56;;;;;;;14.82;8.45;;;;;;;-0.54;76.35;94525.69;4997104;28;20064;-79
2021/12/08 02:48:27;;;;;;;15.73;9.05;;;;;;;-0.69;77.92;94535.72;5028475;28;20091;-80
2021/12/08 02:50:53;;;;;;;15.82;9.27;;;;;;;-0.76;78.07;94553.84;5009584;28;20053;-80
2021/12/08 02:53:18;;;;;;;16.40;9.50;;;;;;;-0.78;78.52;94558.41;5027560;28;20104;-81
2021/12/08 02:55:44;;;;;;;19.08;10.55;;;;;;;-0.80;78.43;94536.63;5027283;28;20037;-79
2021/12/08 02:58:10;;;;;;;19.10;9.73;;;;;;;-0.81;79.06;94537.59;5011770;28;20099;-80
2021/12/08 03:00:58;;;;;;;18.75;9.98;;;;;;;-0.77;78.80;94533.72;5027435;28;20484;-79
2021/12/08 03:03:24;;;;;;;19.85;10.60;;;;;;;-0.80;78.73;94524.31;5027586;28;20048;-80
2021/12/08 03:05:50;;;;;;;20.38;10.88;;;;;;;-0.82;78.84;94544.66;4993913;28;20034;-80
2021/12/08 03:08:15;;;;;;;20.00;11.23;;;;;;;-0.80;78.87;94539.25;5027471;28;20480;-78
2021/12/08 03:10:43;;;;;;;20.73;10.27;;;;;;;-0.78;78.38;94535.56;5028155;28;20419;-79
2021/12/08 03:13:09;;;;;;;17.45;10.82;;;;;;;-0.74;78.61;94533.47;4993106;28;20030;-79
2021/12/08 03:15:35;;;;;;;19.25;9.73;;;;;;;-0.68;78.09;94546.16;5028297;28;20030;-78
2021/12/08 03:18:00;;;;;;;19.83;10.32;;;;;;;-0.69;78.44;94536.56;5027187;28;20025;-79
2021/12/08 03:20:39;;;;;;;19.60;11.02;;;;;;;-0.64;78.09;94544.06;5010045;28;20029;-80
2021/12/08 03:23:06;;;;;;;19.13;9.48;;;;;;;-0.64;78.15;94537.00;5012006;28;20033;-79
2021/12/08 03:25:37;;;;;;;19.80;10.43;;;;;;;-0.64;78.18;94552.81;5009440;28;20095;-81
2021/12/08 03:28:10;;;;;;;19.77;10.20;;;;;;;-0.65;78.11;94551.16;5028288;28;20143;-82
2021/12/08 03:30:51;;;;;;;22.80;11.75;;;;;;;-0.61;77.94;94556.97;5025707;28;20083;-80
2021/12/08 03:33:16;;;;;;;19.63;10.57;;;;;;;-0.59;77.67;94560.31;5026547;28;20040;-80
2021/12/08 03:35:42;;;;;;;20.38;10.57;;;;;;;-0.54;78.24;94563.41;5026307;28;20025;-80
2021/12/08 03:38:08;;;;;;;20.08;10.63;;;;;;;-0.46;77.80;94560.13;5027152;28;20029;-79
2021/12/08 03:40:34;;;;;;;17.80;11.18;;;;;;;-0.43;77.45;94565.13;5026673;28;20088;-81
2021/12/08 03:42:59;;;;;;;18.95;11.13;;;;;;;-0.47;77.83;94578.69;5025223;28;20028;-79
2021/12/08 03:45:34;;;;;;;21.20;10.75;;;;;;;-0.43;77.43;94572.19;5026935;28;20025;-82
2021/12/08 03:48:05;;;;;;;17.02;9.85;;;;;;;-0.43;77.17;94577.47;5024896;28;20115;-79
2021/12/08 03:50:31;;;;;;;22.08;11.15;;;;;;;-0.41;77.60;94584.28;5027410;28;20041;-79
2021/12/08 03:52:57;;;;;;;19.75;11.10;;;;;;;-0.44;76.82;94576.63;5025838;28;20025;-81
2021/12/08 03:55:22;;;;;;;19.55;10.88;;;;;;;-0.39;77.10;94570.97;5025497;28;20025;-78
2021/12/08 03:57:48;;;;;;;21.63;10.35;;;;;;;-0.44;76.59;94592.44;5027436;28;20018;-79
2021/12/08 04:00:16;;;;;;;23.15;11.70;;;;;;;-0.38;77.04;94589.28;4992117;28;20053;-81
2021/12/08 04:02:42;;;;;;;19.23;10.77;;;;;;;-0.36;77.03;94597.06;5026340;28;20041;-80
2021/12/08 04:05:07;;;;;;;22.25;11.38;;;;;;;-0.34;76.94;94616.22;5024863;28;20415;-80
2021/12/08 04:07:33;;;;;;;21.30;11.45;;;;;;;-0.37;76.42;94603.28;5026411;28;20067;-78
2021/12/08 04:09:58;;;;;;;18.73;10.30;;;;;;;-0.36;76.84;94610.25;5026284;28;20036;-79
2021/12/08 04:12:24;;;;;;;20.35;10.23;;;;;;;-0.32;76.28;94606.38;5025333;28;20048;-79
2021/12/08 04:14:59;;;;;;;19.52;10.32;;;;;;;-0.32;76.52;94609.00;5025632;28;20021;-80
2021/12/08 04:17:27;;;;;;;22.23;10.75;;;;;;;-0.32;76.67;94605.56;5025175;28;20032;-81
2021/12/08 04:19:53;;;;;;;17.48;10.05;;;;;;;-0.28;76.26;94610.44;5026315;28;20590;-81
2021/12/08 04:22:22;;;;;;;20.80;10.57;;;;;;;-0.43;76.93;94623.09;5008179;28;20029;-79
2021/12/08 04:24:48;;;;;;;19.10;10.00;;;;;;;-0.38;76.23;94622.69;5025997;28;20022;-80
2021/12/08 04:27:16;;;;;;;21.48;9.90;;;;;;;-0.34;76.75;94626.78;5008584;28;20160;-80
2021/12/08 04:29:42;;;;;;;19.27;10.70;;;;;;;-0.31;76.74;94626.50;5025205;28;20424;-81
2021/12/08 04:32:08;;;;;;;19.98;10.95;;;;;;;-0.31;76.02;94630.94;5026496;28;20072;-81
2021/12/08 04:34:38;;;;;;;20.42;10.80;;;;;;;-0.30;75.95;94630.81;5009087;28;20021;-81
2021/12/08 04:37:07;;;;;;;17.67;10.20;;;;;;;-0.37;76.17;94640.16;5025552;28;20061;-79
2021/12/08 04:39:48;;;;;;;19.27;10.65;;;;;;;-0.44;76.09;94646.94;5024377;28;20038;-79
2021/12/08 04:42:18;;;;;;;22.58;11.00;;;;;;;-0.57;76.64;94649.75;5025755;28;20080;-81
2021/12/08 04:44:51;;;;;;;18.48;9.57;;;;;;;-0.42;76.43;94651.09;5026319;28;20029;-80
2021/12/08 04:52:27;;;;;;;19.48;10.30;;;;;;;-0.34;76.40;94663.66;5023857;28;20058;-78
2021/12/08 05:03:40;;;;;;;21.60;11.43;;;;;;;-0.42;76.14;94680.09;5025343;28;20025;-80
2021/12/08 05:06:39;;;;;;;21.13;10.77;;;;;;;-0.42;76.64;94671.38;5025137;28;20025;-80
2021/12/08 05:08:54;;;;;;;20.25;10.85;;;;;;;-0.57;77.54;94673.47;5024648;28;20047;-80
2021/12/08 05:11:23;;;;;;;22.15;11.65;;;;;;;-0.51;76.96;94672.94;5009613;28;20029;-80
2021/12/08 05:13:52;;;;;;;19.45;10.65;;;;;;;-0.48;77.45;94688.50;5024397;28;20083;-80
2021/12/08 05:16:17;;;;;;;25.13;11.98;;;;;;;-0.48;77.24;94695.59;5026521;28;20476;-81
2021/12/08 05:18:45;;;;;;;20.75;11.77;;;;;;;-0.50;76.51;94686.00;5024897;28;20025;-79
2021/12/08 05:21:33;;;;;;;23.65;12.45;;;;;;;-0.50;77.29;94698.34;5026442;28;20080;-80
2021/12/08 05:24:04;;;;;;;21.00;11.43;;;;;;;-0.47;77.14;94691.97;5029580;28;20516;-80
2021/12/08 05:26:58;;;;;;;26.67;12.20;;;;;;;-0.44;76.42;94697.84;5029572;28;20021;-81
2021/12/08 05:29:25;;;;;;;;;;;;;;;-0.49;76.37;94692.09;5030564;28;20037;-79
2021/12/08 05:31:51;;;;;;;23.83;10.23;;;;;;;-0.53;77.22;94701.22;5027986;28;19919;-81
2021/12/08 05:34:16;;;;;;;19.08;9.82;;;;;;;-0.40;77.01;94701.03;5028894;28;20021;-82
2021/12/08 05:36:42;;;;;;;18.10;10.50;;;;;;;-0.45;76.90;94704.06;5028221;28;20037;-82
2021/12/08 05:39:10;;;;;;;20.27;11.15;;;;;;;-0.45;77.03;94706.69;5028460;28;20100;-81
2021/12/08 05:41:37;;;;;;;20.88;10.70;;;;;;;-0.36;76.88;94696.34;5028149;28;20033;-80
2021/12/08 05:44:03;;;;;;;20.95;10.63;;;;;;;-0.36;76.43;94726.19;5027845;28;20036;-80
2021/12/08 05:46:30;;;;;;;20.45;10.60;;;;;;;-0.42;76.74;94724.88;5029826;28;20025;-80
2021/12/08 05:48:55;;;;;;;22.13;10.52;;;;;;;-0.46;76.28;94727.91;5027311;28;20116;-80
2021/12/08 05:51:31;;;;;;;21.10;10.63;;;;;;;-0.51;77.03;94730.91;5028235;28;20037;-80
2021/12/08 05:54:00;;;;;;;22.45;10.25;;;;;;;-0.50;77.28;94732.59;5011579;28;20083;-80
2021/12/08 05:56:25;;;;;;;23.50;11.48;;;;;;;-0.59;77.01;94726.28;5029288;28;20030;-81
2021/12/08 05:58:52;;;;;;;22.50;10.45;;;;;;;-0.56;77.08;94733.91;5028219;28;20376;-81
2021/12/08 06:01:33;;;;;;;21.08;10.55;;;;;;;-0.56;76.98;94718.13;5027560;28;20029;-80
2021/12/08 06:04:00;;;;;;;25.02;10.80;;;;;;;-0.60;77.53;94721.13;5030144;28;20052;-80
2021/12/08 06:06:26;;;;;;;21.38;11.60;;;;;;;-0.59;77.18;94741.22;5026940;28;20037;-80
2021/12/08 06:08:51;;;;;;;22.42;11.23;;;;;;;-0.62;76.98;94744.97;5028443;28;20109;-79
2021/12/08 06:11:17;;;;;;;20.75;11.10;;;;;;;-0.63;77.18;94744.13;5028879;28;20152;-81
2021/12/08 06:13:43;;;;;;;21.73;11.25;;;;;;;-0.67;77.19;94726.91;5029260;28;20565;-82
2021/12/08 06:16:10;;;;;;;20.17;11.10;;;;;;;-0.73;77.63;94747.63;5013278;28;20488;-79
2021/12/08 06:18:39;;;;;;;20.27;10.27;;;;;;;-0.76;77.21;94741.66;5028276;28;20052;-82
2021/12/08 06:21:07;;;;;;;21.92;10.80;;;;;;;-0.76;77.32;94751.38;5028478;28;20030;-80
2021/12/08 06:23:33;;;;;;;19.88;10.60;;;;;;;-0.77;77.27;94747.03;5026968;28;20026;-80
2021/12/08 06:25:59;;;;;;;22.38;10.05;;;;;;;-0.73;77.58;94753.75;5029422;28;20501;-80
2021/12/08 06:28:25;;;;;;;23.98;10.90;;;;;;;-0.72;77.54;94758.03;5028216;28;20130;-81
2021/12/08 06:30:50;;;;;;;20.80;11.10;;;;;;;-0.76;77.73;94764.53;5027506;28;20021;-80
2021/12/08 06:33:16;;;;;;;19.05;9.93;;;;;;;-0.73;77.08;94763.44;5026943;28;20117;-80
2021/12/08 06:35:48;;;;;;;20.33;10.52;;;;;;;-0.79;77.75;94770.88;5028066;28;20488;-81
2021/12/08 06:38:13;;;;;;;19.13;10.13;;;;;;;-0.81;76.92;94764.06;5029562;28;20161;-80
2021/12/08 06:40:52;;;;;;;20.05;11.13;;;;;;;-0.72;77.61;94773.84;5036101;28;20033;-81
2021/12/08 06:43:23;;;;;;;22.48;11.52;;;;;;;-0.66;77.14;94775.16;5041144;28;20087;-80
2021/12/08 06:45:50;;;;;;;21.83;11.07;;;;;;;-0.56;77.46;94780.50;5036415;28;20503;-81
2021/12/08 06:48:19;;;;;;;20.38;10.55;;;;;;;-0.61;76.87;94775.59;5038155;28;20029;-80
2021/12/08 06:50:57;;;;;;;20.15;11.10;;;;;;;-0.47;77.10;94778.94;5032083;28;20030;-80
2021/12/08 06:53:23;;;;;;;16.00;9.32;;;;;;;-0.39;76.41;94772.06;5027567;28;20597;-81
2021/12/08 06:55:56;;;;;;;19.30;9.82;;;;;;;-0.32;76.17;94772.38;5027187;28;20061;-81
2021/12/08 06:58:24;;;;;;;19.02;10.40;;;;;;;-0.31;75.26;94779.34;5027883;28;20028;-81
2021/12/08 07:01:48;;;;;;;21.17;9.88;;;;;;;-0.28;75.14;94778.25;5027205;28;20029;-80
2021/12/08 07:07:00;;;;;;;16.05;9.27;;;;;;;-0.21;75.22;94779.41;5027891;28;20116;-81
2021/12/08 07:09:48;;;;;;;20.90;9.02;;;;;;;-0.26;74.63;94771.06;5028590;28;20484;-80
2021/12/08 07:12:14;;;;;;;17.52;9.02;;;;;;;-0.20;74.65;94785.53;5027966;28;20041;-79
2021/12/08 07:14:39;;;;;;;20.75;10.40;;;;;;;-0.09;74.32;94782.00;5028187;28;20030;-80
2021/12/08 07:17:07;;;;;;;17.88;9.95;;;;;;;-0.16;74.07;94776.41;5028802;28;20033;-81
2021/12/08 07:19:44;;;;;;;21.13;10.43;;;;;;;-0.22;74.42;94788.28;5026145;28;20499;-80
2021/12/08 07:22:21;;;;;;;17.92;10.18;;;;;;;-0.10;74.25;94788.25;5027771;28;20029;-80
2021/12/08 07:24:48;;;;;;;17.95;9.75;;;;;;;-0.28;74.12;94786.16;5011273;28;20036;-81
2021/12/08 07:27:17;;;;;;;20.33;9.90;;;;;;;-0.19;73.94;94798.56;5009927;28;20041;-80
2021/12/08 07:29:43;;;;;;;20.38;9.63;;;;;;;-0.22;74.10;94797.97;4994182;28;20063;-82
2021/12/08 07:32:26;;;;;;;19.83;10.18;;;;;;;-0.23;74.39;94809.50;5027572;28;20028;-80
2021/12/08 07:34:52;;;;;;;18.45;10.13;;;;;;;-0.23;73.90;94799.81;5028390;28;20029;-80
2021/12/08 07:37:23;;;;;;;17.38;10.00;;;;;;;-0.26;73.66;94823.78;5025898;28;20400;-80
2021/12/08 07:39:55;;;;;;;16.30;9.85;;;;;;;-0.23;73.56;94818.25;5027587;28;20026;-80
2021/12/08 07:42:33;;;;;;;17.45;9.45;;;;;;;-0.21;73.54;94816.31;5025969;28;20500;-80
2021/12/08 07:45:01;;;;;;;18.27;9.85;;;;;;;-0.07;74.08;94824.91;5025242;28;20029;-80
2021/12/08 07:47:27;;;;;;;21.05;9.77;;;;;;;-0.14;73.96;94833.31;5027608;28;20035;-80
2021/12/08 07:49:59;;;;;;;19.08;10.20;;;;;;;-0.08;72.62;94829.31;5025287;28;20415;-80
2021/12/08 07:52:28;;;;;;;17.80;9.82;;;;;;;-0.01;73.04;94833.13;4993823;28;20029;-83
2021/12/08 07:54:54;;;;;;;16.17;9.43;;;;;;;0.02;72.74;94844.41;5025083;28;20559;-79
2021/12/08 07:57:24;;;;;;;17.00;9.25;;;;;;;-0.01;72.24;94841.06;5027627;28;20108;-80
2021/12/08 07:59:51;;;;;;;18.88;10.30;;;;;;;-0.18;73.07;94831.88;5025633;28;20220;-81
2021/12/08 08:02:17;;;;;;;19.83;9.38;;;;;;;-0.05;73.06;94855.44;5026952;28;20155;-81
2021/12/08 08:04:43;;;;;;;16.73;9.82;;;;;;;0.01;73.39;94853.25;5027357;28;20040;-81
2021/12/08 08:07:09;;;;;;;22.48;11.05;;;;;;;0.10;72.77;94863.91;5026314;28;20049;-79
2021/12/08 08:09:39;;;;;;;16.20;8.60;;;;;;;0.12;71.78;94863.75;5009787;28;20033;-80
2021/12/08 08:12:06;;;;;;;17.50;10.00;;;;;;;0.11;72.35;94868.19;5025025;28;20112;-81
2021/12/08 08:14:38;;;;;;;19.15;9.52;;;;;;;0.17;72.30;94860.75;5027438;28;20442;-79
2021/12/08 08:17:04;;;;;;;24.50;11.70;;;;;;;0.17;71.88;94871.28;5025546;28;20083;-80
2021/12/08 08:19:31;;;;;;;21.17;11.18;;;;;;;0.11;71.37;94868.19;5009188;28;20104;-80
2021/12/08 08:22:00;;;;;;;18.77;10.63;;;;;;;-0.04;72.53;94864.19;5027253;28;20057;-80
2021/12/08 08:24:26;;;;;;;18.77;10.60;;;;;;;-0.26;73.66;94866.75;5026612;28;20108;-79
2021/12/08 08:26:53;;;;;;;19.08;10.95;;;;;;;-0.04;72.60;94864.19;5026132;28;20032;-81
2021/12/08 08:29:18;;;;;;;24.00;11.02;;;;;;;-0.08;72.67;94862.78;5024547;28;20033;-79
2021/12/08 08:31:51;;;;;;;18.63;10.20;;;;;;;0.02;72.53;94866.31;5026190;28;20028;-81
2021/12/08 08:34:17;;;;;;;;;;;;;;;0.07;72.51;94872.06;5026686;28;20057;-82
2021/12/08 08:36:43;;;;;;;19.38;10.18;;;;;;;0.01;71.71;94871.72;5026675;28;20379;-81
2021/12/08 08:39:12;;;;;;;18.48;10.60;;;;;;;0.04;72.27;94867.03;5025375;28;20121;-82
2021/12/08 08:41:50;;;;;;;17.95;9.52;;;;;;;0.06;72.51;94873.03;5026709;28;20021;-80
2021/12/08 08:44:40;;;;;;;18.17;10.32;;;;;;;0.15;72.40;94873.22;5009207;28;20486;-80
2021/12/08 08:47:09;;;;;;;19.80;10.38;;;;;;;0.04;72.49;94876.75;5026060;28;20037;-81
2021/12/08 08:49:34;;;;;;;18.50;9.95;;;;;;;0.14;72.52;94867.13;5009084;28;20087;-80
2021/12/08 08:52:03;;;;;;;16.95;10.80;;;;;;;0.07;72.46;94864.16;5025361;28;20030;-80
2021/12/08 08:54:32;;;;;;;19.27;10.55;;;;;;;0.24;71.57;94849.56;5025974;28;20062;-79
2021/12/08 08:57:01;;;;;;;19.02;10.57;;;;;;;0.11;72.25;94860.28;5030845;28;20025;-80
2021/12/08 08:59:34;;;;;;;16.55;9.98;;;;;;;0.23;72.09;94854.97;5029744;28;20519;-80
2021/12/08 09:02:03;;;;;;;16.73;9.25;;;;;;;0.26;70.67;94851.25;5030909;28;20164;-80
2021/12/08 09:04:30;;;;;;;21.73;11.13;;;;;;;0.26;71.40;94854.69;5030653;28;20029;-80
2021/12/08 09:07:02;;;;;;;19.85;10.57;;;;;;;0.27;70.52;94845.84;5030554;28;20025;-81
2021/12/08 09:09:28;;;;;;;19.17;10.27;;;;;;;0.26;71.43;94841.50;5030302;28;20045;-80
2021/12/08 09:12:18;;;;;;;19.80;10.30;;;;;;;0.16;71.94;94848.53;5028872;28;20494;-80
2021/12/08 09:14:52;;;;;;;16.45;9.77;;;;;;;0.26;71.63;94848.59;5037737;28;20079;-80
2021/12/08 09:17:25;;;;;;;19.15;10.02;;;;;;;0.32;71.47;94848.91;5036328;28;20109;-80
2021/12/08 09:20:00;;;;;;;;;;;;;;;0.28;72.06;94842.22;5038698;28;20029;-79
2021/12/08 09:22:33;;;;;;;18.05;9.32;;;;;;;0.39;71.98;94843.16;5036158;28;19920;-80
2021/12/08 09:25:07;;;;;;;22.30;11.77;;;;;;;0.49;71.68;94851.94;4995618;28;20040;-79
2021/12/08 09:27:36;;;;;;;20.15;10.80;;;;;;;0.55;70.48;94840.06;5028838;28;20052;-81
2021/12/08 09:30:13;;;;;;;20.90;11.02;;;;;;;0.71;71.02;94826.38;5027955;28;20079;-79
2021/12/08 09:33:00;;;;;;;17.63;10.55;;;;;;;0.87;70.27;94828.56;5030314;28;20543;-80
2021/12/08 09:35:59;;;;;;;18.35;10.13;;;;;;;0.76;69.31;94820.72;5029812;28;20040;-81
2021/12/08 09:38:39;;;;;;;15.90;9.30;;;;;;;0.79;70.34;94820.44;5027686;28;20029;-81
2021/12/08 09:41:37;;;;;;;20.65;9.80;;;;;;;1.01;69.18;94815.94;5029010;28;20037;-79
2021/12/08 09:44:11;;;;;;;16.65;10.00;;;;;;;1.14;69.52;94810.44;5016634;28;20037;-81
2021/12/08 09:46:40;;;;;;;16.63;9.77;;;;;;;1.14;68.80;94815.72;5027826;28;20079;-80
2021/12/08 09:49:06;;;;;;;16.70;9.45;;;;;;;1.24;68.42;94816.59;5028379;28;20033;-81
2021/12/08 09:51:31;;;;;;;17.10;9.65;;;;;;;1.16;68.35;94811.13;5027485;28;20068;-82
2021/12/08 09:53:58;;;;;;;16.27;9.65;;;;;;;0.96;67.81;94813.69;5028249;28;20108;-78
2021/12/08 09:56:24;;;;;;;16.52;10.10;;;;;;;1.13;68.88;94814.06;5028954;28;20033;-80
2021/12/08 09:58:49;;;;;;;19.38;9.85;;;;;;;1.22;68.42;94808.81;5029585;28;20510;-79
2021/12/08 10:01:18;;;;;;;16.30;8.73;;;;;;;1.31;67.42;94817.72;5029341;28;20030;-80
2021/12/08 10:03:45;;;;;;;18.02;10.68;;;;;;;1.25;67.80;94809.47;5011592;28;20034;-79
2021/12/08 10:06:12;;;;;;;14.43;8.70;;;;;;;1.44;67.35;94806.91;5027860;28;20095;-80
2021/12/08 10:08:37;;;;;;;16.42;9.48;;;;;;;1.51;66.66;94807.19;5010366;28;20025;-81
2021/12/08 10:11:03;;;;;;;17.35;9.57;;;;;;;1.58;66.72;94808.31;5028269;28;20052;-80
2021/12/08 10:13:28;;;;;;;19.05;10.23;;;;;;;1.53;66.74;94822.91;5010682;28;20408;-80
2021/12/08 10:15:54;;;;;;;19.08;10.50;;;;;;;1.44;66.88;94824.56;5027861;28;20526;-80
2021/12/08 10:18:19;;;;;;;17.30;10.70;;;;;;;1.49;66.30;94825.00;5027472;28;20033;-82
2021/12/08 10:20:46;;;;;;;18.27;9.50;;;;;;;1.52;66.55;94819.44;5028490;28;20026;-80
2021/12/08 10:23:27;;;;;;;19.05;10.52;;;;;;;1.32;67.54;94824.66;5029036;28;20030;-80
2021/12/08 10:25:55;;;;;;;16.48;9.93;;;;;;;1.34;67.13;94813.94;5011059;28;20033;-83
2021/12/08 10:28:28;;;;;;;17.60;10.80;;;;;;;1.28;67.10;94815.34;5027970;28;20025;-80
2021/12/08 10:31:27;;;;;;;19.15;10.07;;;;;;;1.47;67.43;94801.34;5027010;28;20036;-80
2021/12/08 10:34:20;;;;;;;22.17;11.35;;;;;;;1.57;66.82;94800.50;5027462;28;20134;-80
2021/12/08 10:36:57;;;;;;;19.35;10.68;;;;;;;1.62;66.70;94797.47;5028882;28;20087;-81
2021/12/08 10:39:26;;;;;;;20.50;10.77;;;;;;;1.67;66.34;94805.81;5027028;28;20037;-81
2021/12/08 10:42:09;;;;;;;17.63;10.23;;;;;;;1.68;66.71;94794.25;5027200;28;20428;-79
2021/12/08 10:44:51;;;;;;;18.27;10.05;;;;;;;1.79;66.90;94795.97;5028324;28;20022;-81
2021/12/08 10:47:28;;;;;;;18.85;10.13;;;;;;;1.82;65.87;94800.97;5026703;28;20112;-81
2021/12/08 10:55:30;;;;;;;18.67;10.40;;;;;;;1.89;65.41;94801.22;5026931;28;20036;-81
2021/12/08 10:57:56;;;;;;;15.82;10.13;;;;;;;1.83;65.44;94789.41;5026610;28;20022;-80
2021/12/08 11:00:33;;;;;;;17.52;10.70;;;;;;;1.88;65.08;94803.06;5026497;28;20045;-81
2021/12/08 11:03:09;;;;;;;19.67;10.95;;;;;;;1.91;65.63;94791.34;5027325;28;20542;-80
2021/12/08 11:05:40;;;;;;;19.50;10.57;;;;;;;1.84;64.39;94786.63;5027821;28;20029;-79
2021/12/08 11:08:07;;;;;;;16.05;9.60;;;;;;;1.78;64.81;94787.19;5026907;28;20032;-79
2021/12/08 11:10:54;;;;;;;18.17;10.20;;;;;;;1.66;65.20;94788.28;5027932;28;20439;-82
2021/12/08 11:13:22;;;;;;;18.98;9.90;;;;;;;1.52;65.26;94784.22;5027295;28;20033;-80
2021/12/08 11:15:48;;;;;;;17.70;9.38;;;;;;;1.35;66.03;94779.47;5027886;28;20032;-80
2021/12/08 11:18:16;;;;;;;14.27;9.15;;;;;;;1.34;66.59;94795.47;5026451;28;20044;-81
2021/12/08 11:20:59;;;;;;;15.77;9.65;;;;;;;1.31;66.27;94795.72;5028243;28;20049;-80
2021/12/08 11:26:14;;;;;;;18.63;10.50;;;;;;;1.19;66.57;94800.31;5025916;28;20034;-79
2021/12/08 11:28:40;;;;;;;16.98;9.95;;;;;;;1.23;66.62;94799.91;5027881;28;20097;-81
2021/12/08 11:31:14;;;;;;;17.92;9.60;;;;;;;1.25;66.77;94809.47;5027119;28;20032;-78
2021/12/08 11:33:43;;;;;;;17.00;9.68;;;;;;;1.30;66.99;94804.63;5027963;28;20071;-80
2021/12/08 11:36:16;;;;;;;17.50;9.60;;;;;;;1.28;67.32;94810.06;5027343;28;20117;-80
2021/12/08 11:38:42;;;;;;;17.05;10.02;;;;;;;1.35;67.11;94811.19;5010671;28;20037;-80
2021/12/08 11:41:36;;;;;;;15.75;9.90;;;;;;;1.34;66.83;94817.44;5026320;28;20032;-79
2021/12/08 11:44:04;;;;;;;16.98;9.75;;;;;;;1.35;67.70;94813.00;5026996;28;20029;-80
2021/12/08 11:46:33;;;;;;;14.65;9.15;;;;;;;1.47;66.89;94806.63;5027064;28;20038;-80
2021/12/08 11:49:10;;;;;;;17.55;9.18;;;;;;;1.58;67.06;94807.50;5027117;28;20033;-79
2021/12/08 11:51:44;;;;;;;17.63;10.07;;;;;;;1.59;66.61;94793.28;5025961;28;20103;-78
2021/12/08 11:54:26;;;;;;;18.77;10.48;;;;;;;1.54;67.12;94811.34;5026689;28;20052;-79
2021/12/08 11:56:52;;;;;;;15.40;9.70;;;;;;;1.48;66.48;94810.09;5027050;28;20033;-82
2021/12/08 11:59:18;;;;;;;16.27;9.55;;;;;;;1.46;66.63;94812.03;5010177;28;20107;-79
2021/12/08 12:01:44;;;;;;;17.30;9.68;;;;;;;1.39;66.54;94803.00;5026607;28;20037;-80
2021/12/08 12:04:10;;;;;;;18.08;9.75;;;;;;;1.36;66.71;94812.03;5009031;28;20037;-81
2021/12/08 12:06:35;;;;;;;14.95;9.00;;;;;;;1.29;66.68;94827.56;5025731;28;20480;-81
2021/12/08 12:09:01;;;;;;;14.55;9.07;;;;;;;1.29;67.30;94819.66;5026432;28;20036;-81
2021/12/08 12:11:27;;;;;;;13.80;8.57;;;;;;;1.20;67.06;94828.38;5027003;28;20029;-80
2021/12/08 12:13:54;;;;;;;15.45;8.77;;;;;;;1.16;66.88;94824.34;5026546;28;20033;-79
2021/12/08 12:16:19;;;;;;;16.17;9.48;;;;;;;1.13;67.13;94819.34;5009212;28;20455;-81
2021/12/08 12:18:44;;;;;;;16.17;9.93;;;;;;;1.18;67.17;94825.03;5026151;28;20026;-80
2021/12/08 12:21:15;;;;;;;15.23;9.10;;;;;;;1.15;67.33;94833.22;5009354;28;20034;-80